• Join FlightAware (Why Join?)
  • Login
  • US Flag 
09:21PM EDT


 

Airport Tracker/Info


-or-


 

Live Flight TrackerFlight Track Log ✈ MMN26 ✈ 02-May-2013 ✈ KBED - KMPV

Flight Track Log - Related Links

Times and Time Zones

All times are in EDT time to prevent confusion due to time zone crossing. See the MMN26 flight status page for this flight to view local times or setup timezone preferences in your user account.

Time Position Orientation Groundspeed Altitude Reporting Facility
EDT Latitude Longitude Course Direction KTS MPH feet Rate Location/Type
01:28PM 42.4667 -71.2667 26° Northeast 123 142 1,200  Level KA90
01:28PM 42.5167 -71.2333 26° Northeast 183 211 3,000 2,820 Climbing KA90
01:31PM 42.6397 -71.2094 19° North 226 260 9,800 2,760 Climbing Boston Center
01:32PM 42.7072 -71.2789 323° Northwest 271 312 12,000 1,080 Climbing Boston Center
01:33PM 42.7892 -71.3481 328° Northwest 323 372 12,000  Level Boston Center
01:34PM 42.8586 -71.4233 322° Northwest 349 402 12,000  Level Boston Center
01:35PM 42.9467 -71.5097 324° Northwest 354 407 12,000  Level Boston Center
01:36PM 43.0203 -71.5825 324° Northwest 354 407 12,000  Level Boston Center
01:37PM 43.1064 -71.6608 326° Northwest 354 407 12,000  Level Boston Center
01:38PM 43.1819 -71.7339 325° Northwest 361 415 12,000  Level Boston Center
01:39PM 43.2697 -71.8186 325° Northwest 361 415 12,000  Level Boston Center
01:40PM 43.3411 -71.8892 324° Northwest 361 415 12,000  Level Boston Center
01:41PM 43.4228 -71.9683 325° Northwest 361 415 12,000  Level Boston Center
01:42PM 43.5064 -72.0450 326° Northwest 361 415 12,000 -540 Level Boston Center
01:43PM 43.5878 -72.1278 324° Northwest 361 415 11,000 -1,320 Descending Boston Center
01:44PM 43.6608 -72.1992 325° Northwest 348 400 9,400 -1,500 Descending Boston Center
01:45PM 43.7297 -72.2506 332° Northwest 317 365 8,000 -720 Descending Boston Center
01:46PM 43.7986 -72.2964 334° Northwest 289 333 8,000 -360 Level Boston Center
01:47PM 43.8675 -72.3422 334° Northwest 276 318 7,300 -900 Descending Boston Center
01:48PM 43.9364 -72.3853 336° Northwest 271 312 6,300 -600 Descending Boston Center
01:49PM 44.0031 -72.4256 337° Northwest 271 312 6,100 -480 Descending Boston Center
01:50PM 44.0697 -72.4689 335° Northwest 271 312 5,400 -360 Descending Boston Center
01:51PM 44.1383 -72.5125 335° Northwest 271 312 5,400  Level Boston Center
01:52PM 44.2197 -72.5647 335° Northwest 271 312 5,400  Level Boston Center
01:53PM 44.2197 -72.5647 324° Northwest 271 312 5,400  Level Boston Center
01:55PM 44.2197 -72.5647 324° Northwest 271 312 5,400  Level Boston Center